Time;durP1;ratioP1;P1;durP2;ratioP2;P2;SDS_P1;SDS_P2;PMS_P1;PMS_P2;Temp;Humidity;BMP_temperature;BMP_pressure;BME280_temperature;BME280_humidity;BME280_pressure;Samples;Min_cycle;Max_cycle;Signal;HPM_P1;HPM_P2
2022/10/07 00:00:21;;;;;;;3.80;2.97;;;;;;;;;;4963685;28;20042;-69
2022/10/07 00:02:46;;;;;;;5.82;2.78;;;;;;;;;;4961994;28;20050;-69
2022/10/07 00:05:12;;;;;;;10.75;3.03;;;;;;;;;;4963531;28;20522;-70
2022/10/07 00:07:37;;;;;;;4.18;3.10;;;;;;;;;;4945902;28;20496;-69
2022/10/07 00:10:03;;;;;;;10.18;3.22;;;;;;;;;;4963253;28;20038;-70
2022/10/07 00:12:29;;;;;;;4.35;3.20;;;;;;;;;;4963252;28;20043;-71
2022/10/07 00:14:54;;;;;;;4.68;3.33;;;;;;;;;;4961925;28;20161;-69
2022/10/07 00:17:20;;;;;;;11.65;3.72;;;;;;;;;;4964308;28;20050;-70
2022/10/07 00:19:45;;;;;;;10.23;3.30;;;;;;;;;;4966049;28;20050;-70
2022/10/07 00:22:11;;;;;;;3.63;3.25;;;;;;;;;;4964811;28;20046;-70
2022/10/07 00:24:37;;;;;;;7.63;3.55;;;;;;;;;;4962539;28;20051;-71
2022/10/07 00:27:02;;;;;;;4.63;3.42;;;;;;;;;;4962970;28;20515;-69
2022/10/07 00:29:28;;;;;;;6.10;3.50;;;;;;;;;;4945932;28;20050;-70
2022/10/07 00:31:53;;;;;;;5.03;3.70;;;;;;;;;;4945118;28;20047;-70
2022/10/07 00:34:19;;;;;;;5.80;3.60;;;;;;;;;;4963089;28;20047;-70
2022/10/07 00:36:44;;;;;;;3.72;3.20;;;;;;;;;;4960994;28;20045;-70
2022/10/07 00:39:13;;;;;;;5.50;3.33;;;;;;;;;;4945431;28;20680;-71
2022/10/07 00:41:50;;;;;;;6.00;3.60;;;;;;;;;;4945360;28;20511;-69
2022/10/07 00:44:31;;;;;;;5.35;3.97;;;;;;;;;;4962787;28;20415;-70
2022/10/07 00:47:12;;;;;;;5.70;3.35;;;;;;;;;;4944043;28;20649;-70
2022/10/07 00:49:48;;;;;;;5.30;3.75;;;;;;;;;;4962922;28;20185;-70
2022/10/07 00:52:15;;;;;;;5.97;3.22;;;;;;;;;;4944716;28;20043;-70
2022/10/07 00:54:42;;;;;;;4.82;3.85;;;;;;;;;;4944579;28;20039;-70
2022/10/07 00:57:08;;;;;;;5.95;3.70;;;;;;;;;;4944257;28;20491;-70
2022/10/07 00:59:34;;;;;;;6.80;3.70;;;;;;;;;;4962096;28;20047;-70
2022/10/07 01:01:59;;;;;;;7.32;3.53;;;;;;;;;;4962261;28;20059;-70
2022/10/07 01:04:25;;;;;;;9.13;3.75;;;;;;;;;;4944047;28;20109;-70
2022/10/07 01:06:51;;;;;;;5.45;3.42;;;;;;;;;;4944377;28;20496;-70
2022/10/07 01:09:19;;;;;;;8.52;3.35;;;;;;;;;;4961560;28;20059;-70
2022/10/07 01:12:09;;;;;;;4.47;3.50;;;;;;;;;;4944357;28;20051;-70
2022/10/07 01:14:44;;;;;;;4.57;3.70;;;;;;;;;;4944213;28;20082;-70
2022/10/07 01:17:35;;;;;;;4.00;3.25;;;;;;;;;;4944506;28;20039;-70
2022/10/07 01:20:33;;;;;;;5.88;3.60;;;;;;;;;;4944123;28;20051;-70
2022/10/07 01:23:33;;;;;;;8.80;3.80;;;;;;;;;;4959349;28;20131;-70
2022/10/07 01:26:14;;;;;;;8.85;3.30;;;;;;;;;;4949346;28;20126;-70
2022/10/07 01:28:42;;;;;;;7.30;3.38;;;;;;;;;;4958239;28;20054;-70
2022/10/07 01:31:14;;;;;;;8.73;3.40;;;;;;;;;;4960041;28;20592;-69
2022/10/07 01:33:42;;;;;;;3.75;3.30;;;;;;;;;;4943144;28;20149;-70
2022/10/07 01:36:12;;;;;;;3.83;3.42;;;;;;;;;;4944212;28;20034;-70
2022/10/07 01:38:42;;;;;;;7.03;3.72;;;;;;;;;;4961139;28;20047;-70
2022/10/07 01:41:13;;;;;;;4.53;3.50;;;;;;;;;;4940121;28;20422;-70
2022/10/07 01:43:41;;;;;;;8.63;3.15;;;;;;;;;;4944058;28;20410;-70
2022/10/07 01:46:12;;;;;;;6.53;3.30;;;;;;;;;;4943170;28;20039;-70
2022/10/07 01:48:39;;;;;;;3.40;3.10;;;;;;;;;;4943697;28;20511;-70
2022/10/07 01:51:06;;;;;;;9.02;3.90;;;;;;;;;;4928304;28;20051;-70
2022/10/07 01:54:02;;;;;;;4.40;3.50;;;;;;;;;;4944412;28;20058;-70
2022/10/07 01:56:45;;;;;;;9.10;4.80;;;;;;;;;;4959315;28;20093;-70
2022/10/07 01:59:31;;;;;;;4.78;4.28;;;;;;;;;;4943915;28;20113;-68
2022/10/07 02:02:28;;;;;;;5.72;4.57;;;;;;;;;;4944360;28;20129;-69
2022/10/07 02:04:59;;;;;;;7.78;4.10;;;;;;;;;;4943359;28;20496;-69
2022/10/07 02:07:47;;;;;;;6.18;4.10;;;;;;;;;;4943364;28;20112;-70
2022/10/07 02:10:25;;;;;;;6.25;3.67;;;;;;;;;;4959899;28;20047;-69
2022/10/07 02:12:50;;;;;;;8.10;4.30;;;;;;;;;;4960425;28;20050;-69
2022/10/07 02:15:25;;;;;;;4.13;3.72;;;;;;;;;;4962300;28;20057;-69
2022/10/07 02:17:55;;;;;;;7.18;3.90;;;;;;;;;;4946915;28;20972;-69
2022/10/07 02:20:25;;;;;;;5.57;4.13;;;;;;;;;;4947731;28;20042;-69
2022/10/07 02:22:53;;;;;;;9.60;4.40;;;;;;;;;;4947029;28;20053;-70
2022/10/07 02:25:21;;;;;;;7.00;4.28;;;;;;;;;;4947735;28;20046;-70
2022/10/07 02:27:50;;;;;;;7.95;4.57;;;;;;;;;;4947597;28;20050;-69
2022/10/07 02:30:18;;;;;;;4.65;3.65;;;;;;;;;;4931339;28;20058;-69
2022/10/07 02:32:52;;;;;;;4.45;3.88;;;;;;;;;;4946866;28;20979;-70
2022/10/07 02:35:27;;;;;;;8.25;4.22;;;;;;;;;;4947728;28;20062;-69
2022/10/07 02:37:56;;;;;;;5.78;4.00;;;;;;;;;;4947779;28;20085;-70
2022/10/07 02:40:28;;;;;;;7.78;4.85;;;;;;;;;;4946797;28;20190;-70
2022/10/07 02:42:57;;;;;;;;;;;;;;;;;;4947127;28;20053;-70
2022/10/07 02:45:56;;;;;;;4.93;4.13;;;;;;;;;;4965009;28;20407;-70
2022/10/07 02:48:33;;;;;;;7.50;4.30;;;;;;;;;;4953422;28;21083;-69
2022/10/07 02:51:02;;;;;;;5.30;3.97;;;;;;;;;;4963671;28;20050;-70
2022/10/07 02:53:31;;;;;;;4.45;3.72;;;;;;;;;;4946979;28;20157;-70
2022/10/07 02:55:58;;;;;;;8.77;4.45;;;;;;;;;;4947121;28;20145;-69
2022/10/07 02:58:25;;;;;;;7.43;4.03;;;;;;;;;;4947218;28;20050;-69
2022/10/07 03:00:57;;;;;;;8.00;4.55;;;;;;;;;;4947009;28;20039;-69
2022/10/07 03:03:23;;;;;;;;;;;;;;;;;;4964311;28;20117;-69
2022/10/07 03:05:58;;;;;;;11.18;4.63;;;;;;;;;;4946830;28;19926;-69
2022/10/07 03:08:23;;;;;;;6.22;3.90;;;;;;;;;;4947620;28;20415;-69
2022/10/07 03:10:50;;;;;;;6.70;4.32;;;;;;;;;;4946204;28;20118;-69
2022/10/07 03:13:15;;;;;;;4.55;3.92;;;;;;;;;;4946073;28;20051;-69
2022/10/07 03:15:45;;;;;;;14.30;5.10;;;;;;;;;;4946833;28;20054;-68
2022/10/07 03:18:27;;;;;;;6.25;4.95;;;;;;;;;;4947173;28;20129;-69
2022/10/07 03:21:00;;;;;;;11.02;4.22;;;;;;;;;;4946396;28;20666;-69
2022/10/07 03:23:30;;;;;;;7.90;4.70;;;;;;;;;;4946100;28;20133;-69
2022/10/07 03:25:58;;;;;;;5.82;4.28;;;;;;;;;;4946695;28;20039;-69
2022/10/07 03:28:25;;;;;;;10.10;5.07;;;;;;;;;;4945980;28;20054;-69
2022/10/07 03:30:51;;;;;;;7.20;3.88;;;;;;;;;;4945925;28;20043;-70
2022/10/07 03:33:18;;;;;;;5.97;4.03;;;;;;;;;;4963929;28;20710;-70
2022/10/07 03:35:45;;;;;;;10.75;4.15;;;;;;;;;;4945610;28;20504;-70
2022/10/07 03:38:11;;;;;;;4.85;4.10;;;;;;;;;;4946376;28;20043;-70
2022/10/07 03:40:38;;;;;;;5.57;4.55;;;;;;;;;;4944400;28;20129;-68
2022/10/07 03:43:04;;;;;;;5.35;4.40;;;;;;;;;;4945611;28;20496;-68
2022/10/07 03:45:30;;;;;;;9.00;4.68;;;;;;;;;;4945364;28;20713;-68
2022/10/07 03:47:57;;;;;;;5.88;4.28;;;;;;;;;;4946371;28;20130;-68
2022/10/07 03:50:23;;;;;;;5.72;5.15;;;;;;;;;;4946324;28;20042;-68
2022/10/07 03:52:49;;;;;;;8.00;4.75;;;;;;;;;;4960495;28;20063;-68
2022/10/07 03:55:15;;;;;;;5.97;4.53;;;;;;;;;;4946050;28;20050;-69
2022/10/07 03:57:52;;;;;;;8.30;5.25;;;;;;;;;;4962496;28;20055;-69
2022/10/07 04:00:21;;;;;;;12.20;5.68;;;;;;;;;;4948781;28;20097;-69
2022/10/07 04:02:51;;;;;;;8.88;6.15;;;;;;;;;;4947458;28;20042;-70
2022/10/07 04:05:19;;;;;;;9.10;6.25;;;;;;;;;;4946738;28;20074;-69
2022/10/07 04:07:46;;;;;;;10.60;6.75;;;;;;;;;;4945332;28;20051;-70
2022/10/07 04:10:14;;;;;;;8.80;5.93;;;;;;;;;;4946014;28;20050;-70
2022/10/07 04:12:40;;;;;;;12.43;6.18;;;;;;;;;;4962016;28;20058;-69
2022/10/07 04:15:07;;;;;;;8.13;6.22;;;;;;;;;;4945188;28;20039;-69
2022/10/07 04:17:33;;;;;;;11.70;6.00;;;;;;;;;;4929700;28;20042;-70
2022/10/07 04:19:59;;;;;;;8.27;5.55;;;;;;;;;;4928661;28;20049;-69
2022/10/07 04:22:25;;;;;;;8.75;4.97;;;;;;;;;;4945033;28;20046;-70
2022/10/07 04:27:36;;;;;;;6.50;5.00;;;;;;;;;;4961778;28;20046;-70
2022/10/07 04:30:03;;;;;;;13.68;6.53;;;;;;;;;;4961276;28;20077;-70
2022/10/07 04:32:30;;;;;;;9.13;5.15;;;;;;;;;;4943780;28;20047;-70
2022/10/07 04:34:55;;;;;;;8.50;5.20;;;;;;;;;;4943043;28;20093;-69
2022/10/07 04:37:21;;;;;;;10.15;5.45;;;;;;;;;;4961242;28;20046;-69
2022/10/07 04:39:47;;;;;;;9.10;6.07;;;;;;;;;;4943742;28;20706;-70
2022/10/07 04:43:18;;;;;;;9.35;6.00;;;;;;;;;;4941678;28;20129;-69
2022/10/07 04:44:58;;;;;;;9.50;6.75;;;;;;;;;;4942258;28;20050;-68
2022/10/07 04:47:24;;;;;;;10.63;7.57;;;;;;;;;;4942842;28;20035;-70
2022/10/07 04:49:52;;;;;;;12.77;6.97;;;;;;;;;;4961968;28;20537;-70
2022/10/07 04:52:19;;;;;;;11.02;7.72;;;;;;;;;;4960403;28;20046;-70
2022/10/07 04:54:45;;;;;;;12.30;8.77;;;;;;;;;;4944134;28;20051;-70
2022/10/07 04:57:12;;;;;;;12.63;8.88;;;;;;;;;;4961988;28;20102;-70
2022/10/07 04:59:39;;;;;;;15.10;10.70;;;;;;;;;;4943101;28;20066;-70
2022/10/07 05:02:05;;;;;;;13.48;8.90;;;;;;;;;;4942885;28;20047;-71
2022/10/07 05:04:33;;;;;;;13.88;5.82;;;;;;;;;;4944093;28;20138;-75
2022/10/07 05:07:00;;;;;;;5.32;4.10;;;;;;;;;;4943813;28;20101;-71
2022/10/07 05:09:27;;;;;;;4.47;3.45;;;;;;;;;;4943501;28;20073;-70
2022/10/07 05:11:56;;;;;;;4.05;3.50;;;;;;;;;;4942808;28;20504;-71
2022/10/07 05:14:22;;;;;;;6.53;4.07;;;;;;;;;;4942717;28;20059;-68
2022/10/07 05:16:50;;;;;;;5.45;4.35;;;;;;;;;;4942606;28;20093;-70
2022/10/07 05:19:16;;;;;;;9.02;4.32;;;;;;;;;;4943692;28;20442;-70
2022/10/07 05:21:42;;;;;;;10.25;5.07;;;;;;;;;;4943584;28;20697;-69
2022/10/07 05:24:08;;;;;;;10.68;5.68;;;;;;;;;;4944014;28;20043;-68
2022/10/07 05:26:36;;;;;;;16.40;5.93;;;;;;;;;;4943811;28;20121;-69
2022/10/07 05:29:05;;;;;;;8.30;6.28;;;;;;;;;;4944330;28;20126;-71
2022/10/07 05:31:36;;;;;;;;;;;;;;;;;;4945453;28;20114;-69
2022/10/07 05:34:03;;;;;;;7.68;6.10;;;;;;;;;;4944535;28;19926;-70
2022/10/07 05:36:29;;;;;;;8.27;6.05;;;;;;;;;;4928238;28;20109;-70
2022/10/07 05:38:57;;;;;;;9.50;6.22;;;;;;;;;;4943796;28;20066;-67
2022/10/07 05:41:26;;;;;;;8.15;6.78;;;;;;;;;;4944490;28;20121;-68
2022/10/07 05:43:53;;;;;;;13.88;8.20;;;;;;;;;;4944054;28;20093;-71
2022/10/07 05:46:22;;;;;;;16.80;9.30;;;;;;;;;;4961148;28;20035;-72
2022/10/07 05:48:53;;;;;;;16.30;9.63;;;;;;;;;;4943385;28;20047;-70
2022/10/07 05:51:22;;;;;;;14.25;9.77;;;;;;;;;;4943917;28;20948;-69
2022/10/07 05:53:52;;;;;;;22.20;10.95;;;;;;;;;;4944327;28;20039;-68
2022/10/07 05:56:21;;;;;;;21.42;10.55;;;;;;;;;;4944462;28;20055;-68
2022/10/07 05:58:49;;;;;;;15.10;9.63;;;;;;;;;;4942621;28;20055;-68
2022/10/07 06:01:17;;;;;;;13.23;8.73;;;;;;;;;;4944274;28;20113;-69
2022/10/07 06:03:48;;;;;;;11.00;5.97;;;;;;;;;;4943956;28;20055;-68
2022/10/07 06:06:14;;;;;;;11.93;5.80;;;;;;;;;;4944081;28;20046;-67
2022/10/07 06:08:40;;;;;;;9.30;6.82;;;;;;;;;;4942967;28;20047;-69
2022/10/07 06:13:52;;;;;;;4.75;3.97;;;;;;;;;;4944089;28;20054;-67
2022/10/07 06:16:18;;;;;;;9.38;4.28;;;;;;;;;;4944072;28;20550;-68
2022/10/07 06:18:44;;;;;;;4.57;3.75;;;;;;;;;;4960741;28;20051;-67
2022/10/07 06:21:11;;;;;;;7.53;4.85;;;;;;;;;;4943041;28;20049;-67
2022/10/07 06:23:37;;;;;;;9.88;5.57;;;;;;;;;;4943948;28;20039;-68
2022/10/07 06:26:07;;;;;;;10.32;6.60;;;;;;;;;;4943845;28;20038;-69
2022/10/07 06:28:38;;;;;;;13.23;7.32;;;;;;;;;;4961529;28;20308;-68
2022/10/07 06:31:07;;;;;;;19.67;8.18;;;;;;;;;;4925991;28;20053;-65
2022/10/07 06:33:34;;;;;;;22.95;9.18;;;;;;;;;;4943596;28;20046;-68
2022/10/07 06:36:11;;;;;;;10.90;4.93;;;;;;;;;;4961375;28;20051;-67
2022/10/07 06:38:42;;;;;;;17.42;7.65;;;;;;;;;;4943558;28;20047;-69
2022/10/07 06:41:08;;;;;;;28.60;9.68;;;;;;;;;;4943522;28;20130;-69
2022/10/07 06:43:34;;;;;;;64.25;13.40;;;;;;;;;;4940049;28;20113;-71
2022/10/07 06:46:17;;;;;;;30.17;13.95;;;;;;;;;;4943675;28;20039;-69
2022/10/07 06:48:45;;;;;;;49.60;13.25;;;;;;;;;;4943032;28;20046;-71
2022/10/07 06:51:14;;;;;;;78.57;17.50;;;;;;;;;;4943782;28;20105;-70
2022/10/07 06:53:40;;;;;;;55.20;16.83;;;;;;;;;;4943102;28;20043;-71
2022/10/07 06:56:06;;;;;;;39.35;17.45;;;;;;;;;;4943630;28;20050;-70
2022/10/07 06:58:34;;;;;;;56.05;17.40;;;;;;;;;;4943755;28;20063;-71
2022/10/07 07:01:02;;;;;;;54.30;18.38;;;;;;;;;;4943029;28;20074;-71
2022/10/07 07:03:28;;;;;;;135.30;20.95;;;;;;;;;;4945076;28;20129;-70
2022/10/07 07:05:56;;;;;;;76.20;18.88;;;;;;;;;;4946722;28;20094;-71
2022/10/07 07:08:29;;;;;;;32.90;16.80;;;;;;;;;;4947566;28;20042;-71
2022/10/07 07:10:55;;;;;;;79.30;16.17;;;;;;;;;;4946184;28;20125;-69
2022/10/07 07:13:21;;;;;;;33.25;16.90;;;;;;;;;;4947157;28;20074;-70
2022/10/07 07:15:57;;;;;;;95.20;17.05;;;;;;;;;;4945999;28;20057;-74
2022/10/07 07:18:24;;;;;;;27.83;15.70;;;;;;;;;;4946917;28;20050;-71
2022/10/07 07:20:50;;;;;;;50.83;15.57;;;;;;;;;;4946328;28;20031;-71
2022/10/07 07:23:17;;;;;;;65.05;15.63;;;;;;;;;;4946820;28;20104;-73
2022/10/07 07:25:44;;;;;;;28.10;14.75;;;;;;;;;;4946131;28;20049;-71
2022/10/07 07:28:13;;;;;;;49.90;15.82;;;;;;;;;;4946884;28;20136;-71
2022/10/07 07:30:38;;;;;;;102.68;17.17;;;;;;;;;;4963333;28;20054;-70
2022/10/07 07:33:05;;;;;;;26.70;15.57;;;;;;;;;;4946381;28;20054;-73
2022/10/07 07:35:31;;;;;;;40.03;16.70;;;;;;;;;;4946894;28;20054;-69
2022/10/07 07:38:00;;;;;;;48.58;14.85;;;;;;;;;;4946172;28;20297;-72
2022/10/07 07:40:26;;;;;;;56.65;15.63;;;;;;;;;;4946885;28;20054;-69
2022/10/07 07:42:54;;;;;;;31.13;13.98;;;;;;;;;;4946133;28;20038;-71
2022/10/07 07:45:21;;;;;;;54.70;15.45;;;;;;;;;;4946585;28;20054;-70
2022/10/07 07:47:48;;;;;;;51.72;17.05;;;;;;;;;;4945706;28;20043;-70
2022/10/07 07:50:17;;;;;;;38.58;16.55;;;;;;;;;;4946857;28;20039;-71
2022/10/07 07:52:43;;;;;;;27.08;16.25;;;;;;;;;;4945873;28;20514;-69
2022/10/07 07:55:09;;;;;;;25.27;15.10;;;;;;;;;;4946186;28;20040;-70
2022/10/07 07:57:36;;;;;;;48.13;15.02;;;;;;;;;;4946046;28;20058;-73
2022/10/07 08:00:06;;;;;;;42.65;15.02;;;;;;;;;;4945619;28;20034;-69
2022/10/07 08:02:39;;;;;;;29.73;15.18;;;;;;;;;;4962650;28;20042;-66
2022/10/07 08:05:06;;;;;;;27.58;15.73;;;;;;;;;;4946033;28;20053;-68
2022/10/07 08:07:34;;;;;;;25.98;14.18;;;;;;;;;;4946213;28;20051;-66
2022/10/07 08:10:01;;;;;;;39.70;15.98;;;;;;;;;;4945287;28;20149;-66
2022/10/07 08:12:27;;;;;;;41.17;17.13;;;;;;;;;;4945674;28;20047;-67
2022/10/07 08:14:54;;;;;;;37.92;17.42;;;;;;;;;;4945023;28;20050;-70
2022/10/07 08:17:20;;;;;;;50.60;18.88;;;;;;;;;;4945810;28;20050;-70
2022/10/07 08:19:46;;;;;;;43.95;16.65;;;;;;;;;;4946095;28;20082;-67
2022/10/07 08:22:16;;;;;;;33.40;17.92;;;;;;;;;;4944814;28;20051;-69
2022/10/07 08:24:42;;;;;;;27.00;15.82;;;;;;;;;;4944952;28;20047;-68
2022/10/07 08:27:07;;;;;;;32.42;15.43;;;;;;;;;;4945865;28;20046;-68
2022/10/07 08:29:34;;;;;;;25.58;15.68;;;;;;;;;;4963423;28;20051;-68
2022/10/07 08:31:59;;;;;;;27.65;15.25;;;;;;;;;;4944325;28;20059;-70
2022/10/07 08:34:25;;;;;;;32.83;15.07;;;;;;;;;;4963047;28;20050;-65
2022/10/07 08:36:51;;;;;;;26.83;14.35;;;;;;;;;;4961887;28;20049;-66
2022/10/07 08:39:16;;;;;;;29.73;14.98;;;;;;;;;;4962921;28;20061;-69
2022/10/07 08:42:01;;;;;;;27.08;15.10;;;;;;;;;;4962781;28;20054;-68
2022/10/07 08:44:30;;;;;;;28.85;15.25;;;;;;;;;;4962074;28;20061;-69
2022/10/07 08:46:59;;;;;;;28.52;14.50;;;;;;;;;;4962176;28;20054;-69
2022/10/07 08:49:43;;;;;;;22.75;14.93;;;;;;;;;;4962795;28;20051;-67
2022/10/07 08:52:24;;;;;;;23.85;15.05;;;;;;;;;;4962265;28;20058;-70
2022/10/07 08:54:50;;;;;;;27.30;14.93;;;;;;;;;;4943800;28;20408;-68
2022/10/07 08:57:44;;;;;;;28.20;15.60;;;;;;;;;;4962611;28;20058;-67
2022/10/07 09:00:16;;;;;;;47.22;15.63;;;;;;;;;;4934847;28;20137;-71
2022/10/07 09:03:19;;;;;;;35.75;17.27;;;;;;;;;;4961950;28;20109;-70
2022/10/07 09:05:48;;;;;;;35.55;17.25;;;;;;;;;;4961647;28;20061;-71
2022/10/07 09:08:23;;;;;;;33.42;15.93;;;;;;;;;;4962881;28;20169;-69
2022/10/07 09:10:52;;;;;;;27.65;14.80;;;;;;;;;;4961468;28;20055;-70
2022/10/07 09:13:27;;;;;;;27.45;17.13;;;;;;;;;;4961920;28;20054;-73
2022/10/07 09:16:05;;;;;;;35.22;17.08;;;;;;;;;;4961615;28;20078;-72
2022/10/07 09:18:52;;;;;;;31.98;15.55;;;;;;;;;;4962562;28;20499;-70
2022/10/07 09:21:24;;;;;;;28.73;15.18;;;;;;;;;;4945605;28;20102;-68
2022/10/07 09:23:54;;;;;;;25.60;15.57;;;;;;;;;;4963701;28;20090;-75
2022/10/07 09:26:20;;;;;;;22.45;14.38;;;;;;;;;;4944893;28;20556;-72
2022/10/07 09:28:45;;;;;;;22.50;15.05;;;;;;;;;;4962610;28;20055;-70
2022/10/07 09:31:13;;;;;;;21.88;13.88;;;;;;;;;;4963184;28;20049;-74
2022/10/07 09:33:44;;;;;;;25.35;15.35;;;;;;;;;;4945470;28;20051;-74
2022/10/07 09:36:18;;;;;;;24.25;16.10;;;;;;;;;;4962183;28;20038;-70
2022/10/07 09:38:49;;;;;;;27.60;16.95;;;;;;;;;;4960658;28;20054;-76
2022/10/07 09:41:35;;;;;;;27.23;16.10;;;;;;;;;;4962463;28;20123;-74
2022/10/07 09:44:03;;;;;;;27.00;16.05;;;;;;;;;;4961811;28;20062;-72
2022/10/07 09:46:48;;;;;;;26.10;16.13;;;;;;;;;;4962258;28;20066;-72
2022/10/07 09:49:26;;;;;;;26.52;15.27;;;;;;;;;;4943423;28;20058;-72
2022/10/07 09:52:03;;;;;;;22.55;14.60;;;;;;;;;;4944004;28;20051;-71
2022/10/07 09:54:33;;;;;;;24.08;15.05;;;;;;;;;;4961829;28;20054;-69
2022/10/07 09:57:01;;;;;;;23.17;14.63;;;;;;;;;;4960818;28;20055;-73
2022/10/07 09:59:35;;;;;;;25.30;14.57;;;;;;;;;;4960783;28;20063;-74
2022/10/07 10:02:12;;;;;;;23.73;14.73;;;;;;;;;;4961300;28;20047;-70
2022/10/07 10:04:46;;;;;;;24.30;15.60;;;;;;;;;;4960926;28;20061;-73
2022/10/07 10:07:40;;;;;;;27.85;16.65;;;;;;;;;;4961324;28;20134;-74
2022/10/07 10:10:17;;;;;;;25.40;14.82;;;;;;;;;;4961413;28;20043;-71
2022/10/07 10:12:47;;;;;;;27.25;14.45;;;;;;;;;;4960807;28;20581;-70
2022/10/07 10:15:34;;;;;;;21.05;15.02;;;;;;;;;;4961645;28;20105;-73
2022/10/07 10:18:00;;;;;;;26.27;15.90;;;;;;;;;;4961610;28;20623;-70
2022/10/07 10:20:38;;;;;;;23.30;15.63;;;;;;;;;;4961622;28;20051;-70
2022/10/07 10:23:30;;;;;;;28.15;15.90;;;;;;;;;;4960141;28;20051;-69
2022/10/07 10:26:26;;;;;;;24.02;14.35;;;;;;;;;;4961315;28;20054;-72
2022/10/07 10:29:30;;;;;;;23.05;15.05;;;;;;;;;;4954983;28;20558;-74
2022/10/07 10:31:58;;;;;;;24.20;15.73;;;;;;;;;;4961577;28;20047;-70
2022/10/07 10:34:45;;;;;;;25.33;16.83;;;;;;;;;;4960271;28;20058;-70
2022/10/07 10:37:25;;;;;;;22.13;14.77;;;;;;;;;;4925443;28;20070;-72
2022/10/07 10:40:08;;;;;;;22.25;15.15;;;;;;;;;;4964665;28;20500;-70
2022/10/07 10:43:15;;;;;;;25.08;16.02;;;;;;;;;;4964975;28;20048;-70
2022/10/07 10:46:02;;;;;;;22.17;14.18;;;;;;;;;;4930801;28;20046;-71
2022/10/07 10:48:51;;;;;;;21.08;14.55;;;;;;;;;;4962864;28;20042;-70
2022/10/07 10:51:42;;;;;;;27.88;14.50;;;;;;;;;;4947442;28;20147;-71
2022/10/07 10:54:30;;;;;;;23.08;14.50;;;;;;;;;;4946489;28;20078;-69
2022/10/07 10:57:17;;;;;;;25.38;15.75;;;;;;;;;;4963358;28;20151;-71
2022/10/07 11:00:11;;;;;;;21.02;13.60;;;;;;;;;;4964676;28;20069;-71
2022/10/07 11:02:37;;;;;;;26.25;14.70;;;;;;;;;;4962845;28;20064;-70
2022/10/07 11:05:05;;;;;;;19.30;13.60;;;;;;;;;;4964243;28;20545;-70
2022/10/07 11:07:42;;;;;;;19.33;13.82;;;;;;;;;;4963696;28;20069;-70
2022/10/07 11:10:23;;;;;;;25.90;14.90;;;;;;;;;;4964418;28;20050;-70
2022/10/07 11:12:53;;;;;;;23.90;13.45;;;;;;;;;;4963350;28;20626;-69
2022/10/07 11:15:28;;;;;;;21.23;13.48;;;;;;;;;;4964417;28;20411;-70
2022/10/07 11:18:00;;;;;;;20.40;13.52;;;;;;;;;;4963314;28;20141;-69
2022/10/07 11:20:33;;;;;;;;;;;;;;;;;;4964702;28;20637;-71
2022/10/07 11:23:02;;;;;;;20.95;14.18;;;;;;;;;;4962849;28;19925;-71
2022/10/07 11:25:37;;;;;;;19.30;13.02;;;;;;;;;;4964183;28;20053;-70
2022/10/07 11:28:15;;;;;;;22.85;13.77;;;;;;;;;;4963052;28;20055;-70
2022/10/07 11:30:49;;;;;;;19.27;13.25;;;;;;;;;;4963639;28;20151;-71
2022/10/07 11:33:34;;;;;;;21.90;13.70;;;;;;;;;;4963346;28;20058;-72
2022/10/07 11:36:37;;;;;;;18.88;12.88;;;;;;;;;;4963953;28;20047;-71
2022/10/07 11:39:03;;;;;;;20.05;14.60;;;;;;;;;;4962221;28;20047;-71
2022/10/07 11:41:32;;;;;;;21.27;14.48;;;;;;;;;;4964008;28;20098;-70
2022/10/07 11:44:07;;;;;;;19.83;13.77;;;;;;;;;;4963383;28;20110;-71
2022/10/07 11:46:39;;;;;;;18.20;13.02;;;;;;;;;;4963678;28;20052;-69
2022/10/07 11:49:15;;;;;;;22.83;13.60;;;;;;;;;;4961666;28;20051;-67
2022/10/07 11:51:49;;;;;;;20.83;14.10;;;;;;;;;;4963703;28;20046;-70
2022/10/07 11:54:19;;;;;;;18.92;13.18;;;;;;;;;;4962832;28;20145;-69
2022/10/07 11:56:49;;;;;;;24.40;14.60;;;;;;;;;;4962856;28;20054;-67
2022/10/07 11:59:46;;;;;;;21.45;14.43;;;;;;;;;;4962946;28;20735;-68
2022/10/07 12:02:36;;;;;;;20.05;13.80;;;;;;;;;;4962488;28;20046;-68
2022/10/07 12:05:02;;;;;;;17.35;13.07;;;;;;;;;;4937732;28;20145;-70
2022/10/07 12:07:30;;;;;;;21.85;14.65;;;;;;;;;;4963248;28;20051;-70
2022/10/07 12:10:02;;;;;;;20.77;13.68;;;;;;;;;;4962895;28;20120;-69
2022/10/07 12:12:46;;;;;;;19.52;13.20;;;;;;;;;;4962551;28;20389;-68
2022/10/07 12:15:28;;;;;;;23.55;13.70;;;;;;;;;;4945134;28;20082;-70
2022/10/07 12:18:18;;;;;;;21.27;14.52;;;;;;;;;;4963324;28;20051;-70
2022/10/07 12:20:49;;;;;;;;;;;;;;;;;;4944904;28;20035;-72
2022/10/07 12:25:59;;;;;;;18.38;13.10;;;;;;;;;;4963265;28;20059;-71
2022/10/07 12:28:34;;;;;;;17.52;12.35;;;;;;;;;;4963382;28;20673;-69
2022/10/07 12:31:26;;;;;;;20.65;13.48;;;;;;;;;;4961890;28;20145;-72
2022/10/07 12:34:03;;;;;;;17.63;13.10;;;;;;;;;;4962129;28;20057;-72
2022/10/07 12:36:30;;;;;;;20.25;12.98;;;;;;;;;;4962539;28;20063;-71
2022/10/07 12:38:59;;;;;;;20.23;11.68;;;;;;;;;;4929329;28;20070;-69
2022/10/07 12:41:34;;;;;;;15.80;12.32;;;;;;;;;;4962749;28;20133;-72
2022/10/07 12:44:17;;;;;;;19.75;12.23;;;;;;;;;;4962807;28;21146;-69
2022/10/07 12:46:48;;;;;;;16.95;12.57;;;;;;;;;;4961819;28;20055;-70
2022/10/07 12:49:33;;;;;;;19.80;13.30;;;;;;;;;;4962645;28;20046;-71
2022/10/07 12:52:02;;;;;;;17.98;12.88;;;;;;;;;;4945193;28;20047;-69
2022/10/07 12:54:34;;;;;;;18.48;11.85;;;;;;;;;;4962852;28;20055;-71
2022/10/07 12:57:01;;;;;;;18.40;11.77;;;;;;;;;;4960653;28;20099;-71
2022/10/07 12:59:47;;;;;;;14.90;11.15;;;;;;;;;;4962758;28;20392;-72
2022/10/07 13:02:40;;;;;;;16.83;12.40;;;;;;;;;;4961673;28;20054;-67
2022/10/07 13:05:36;;;;;;;16.42;11.95;;;;;;;;;;4962175;28;20475;-69
2022/10/07 13:08:06;;;;;;;18.52;11.18;;;;;;;;;;4961510;28;20050;-71
2022/10/07 13:10:49;;;;;;;15.82;9.65;;;;;;;;;;4962451;28;20651;-70
2022/10/07 13:13:33;;;;;;;15.75;10.23;;;;;;;;;;4944614;28;20549;-71
2022/10/07 13:16:09;;;;;;;13.48;10.05;;;;;;;;;;4962268;28;20519;-70
2022/10/07 13:18:48;;;;;;;19.63;11.50;;;;;;;;;;4961393;28;20050;-72
2022/10/07 13:21:22;;;;;;;17.77;9.77;;;;;;;;;;4944678;28;20058;-70
2022/10/07 13:23:53;;;;;;;16.02;9.82;;;;;;;;;;4959879;28;20042;-71
2022/10/07 13:26:21;;;;;;;15.30;9.48;;;;;;;;;;4961816;28;20527;-71
2022/10/07 13:28:50;;;;;;;15.82;9.77;;;;;;;;;;4958737;28;20134;-69
2022/10/07 13:31:36;;;;;;;15.45;9.82;;;;;;;;;;4957123;28;20054;-69
2022/10/07 13:34:14;;;;;;;14.90;9.77;;;;;;;;;;4961220;28;20046;-69
2022/10/07 13:36:44;;;;;;;16.50;10.93;;;;;;;;;;4959858;28;20065;-72
2022/10/07 13:39:10;;;;;;;14.95;9.90;;;;;;;;;;4960090;28;20732;-69
2022/10/07 13:41:39;;;;;;;12.63;8.82;;;;;;;;;;4960924;28;20058;-72
2022/10/07 13:44:05;;;;;;;14.18;10.40;;;;;;;;;;4958664;28;20074;-69
2022/10/07 13:46:33;;;;;;;14.10;10.48;;;;;;;;;;4961981;28;20221;-70
2022/10/07 13:49:00;;;;;;;20.67;10.65;;;;;;;;;;4961400;28;20541;-70
2022/10/07 13:51:39;;;;;;;14.65;10.93;;;;;;;;;;4954483;28;20105;-70
2022/10/07 13:54:26;;;;;;;17.50;11.52;;;;;;;;;;4960369;28;20055;-71
2022/10/07 13:56:52;;;;;;;16.70;11.30;;;;;;;;;;4960014;28;20070;-71
2022/10/07 14:03:16;;;;;;;22.02;12.35;;;;;;;;;;4960002;28;20057;-70
2022/10/07 14:05:50;;;;;;;18.83;11.35;;;;;;;;;;4962927;28;20133;-70
2022/10/07 14:08:22;;;;;;;21.02;12.52;;;;;;;;;;4963865;28;20121;-69
2022/10/07 14:11:18;;;;;;;20.33;13.70;;;;;;;;;;4960769;28;20490;-68
2022/10/07 14:13:44;;;;;;;26.63;12.60;;;;;;;;;;4963221;28;20053;-68
2022/10/07 14:16:20;;;;;;;17.17;12.52;;;;;;;;;;4963990;28;20050;-72
2022/10/07 14:18:46;;;;;;;18.95;12.15;;;;;;;;;;4961859;28;20057;-69
2022/10/07 14:21:15;;;;;;;18.42;12.70;;;;;;;;;;4962933;28;20050;-68
2022/10/07 14:23:42;;;;;;;27.15;12.90;;;;;;;;;;4963108;28;20101;-69
2022/10/07 14:26:09;;;;;;;17.85;12.82;;;;;;;;;;4964953;28;21434;-68
2022/10/07 14:28:36;;;;;;;17.55;12.40;;;;;;;;;;4964848;28;20059;-72
2022/10/07 14:37:08;;;;;;;21.55;12.73;;;;;;;;;;4963862;28;20063;-69
2022/10/07 14:39:41;;;;;;;21.83;14.55;;;;;;;;;;4964268;28;20073;-68
2022/10/07 14:42:34;;;;;;;21.15;13.73;;;;;;;;;;4964615;28;20720;-69
2022/10/07 14:45:02;;;;;;;22.77;14.50;;;;;;;;;;4946735;28;20796;-72
2022/10/07 14:47:36;;;;;;;20.23;12.93;;;;;;;;;;4944004;28;20066;-71
2022/10/07 14:50:02;;;;;;;19.77;13.95;;;;;;;;;;4964202;28;20082;-70
2022/10/07 14:52:45;;;;;;;23.00;14.00;;;;;;;;;;4964066;28;20149;-69
2022/10/07 14:55:26;;;;;;;22.58;14.73;;;;;;;;;;4929735;28;20035;-70
2022/10/07 14:57:52;;;;;;;25.27;15.63;;;;;;;;;;4963094;28;20057;-70
2022/10/07 15:00:20;;;;;;;27.15;14.25;;;;;;;;;;4962270;28;20059;-69
2022/10/07 15:02:49;;;;;;;26.08;14.43;;;;;;;;;;4960193;28;20042;-69
2022/10/07 15:05:15;;;;;;;20.98;15.38;;;;;;;;;;4962655;28;20043;-71
2022/10/07 15:07:41;;;;;;;27.23;16.08;;;;;;;;;;4962460;28;20061;-71
2022/10/07 15:10:25;;;;;;;20.15;14.13;;;;;;;;;;4943679;28;20062;-71
2022/10/07 15:12:51;;;;;;;23.05;14.95;;;;;;;;;;4942941;28;20144;-70
2022/10/07 15:15:17;;;;;;;24.30;14.98;;;;;;;;;;4964570;28;20055;-71